Time;durP1;ratioP1;P1;durP2;ratioP2;P2;SDS_P1;SDS_P2;PMS_P1;PMS_P2;Temp;Humidity;BMP_temperature;BMP_pressure;BME280_temperature;BME280_humidity;BME280_pressure;Samples;Min_cycle;Max_cycle;Signal;HPM_P1;HPM_P2
2022/08/23 00:01:55;;;;;;;3.47;2.43;;;;;;;;;;5021665;28;20200;-77
2022/08/23 00:04:26;;;;;;;3.60;2.20;;;;;;;;;;5055930;28;20169;-77
2022/08/23 00:06:52;;;;;;;5.23;2.50;;;;;;;;;;5038160;28;20166;-77
2022/08/23 00:09:20;;;;;;;3.73;2.47;;;;;;;;;;5037933;28;20205;-77
2022/08/23 00:11:53;;;;;;;2.90;2.20;;;;;;;;;;5021108;28;20182;-77
2022/08/23 00:14:28;;;;;;;3.10;2.23;;;;;;;;;;5037605;28;20165;-77
2022/08/23 00:16:54;;;;;;;2.97;2.30;;;;;;;;;;5037873;28;20183;-77
2022/08/23 00:19:21;;;;;;;3.63;2.40;;;;;;;;;;5037741;28;20666;-77
2022/08/23 00:21:48;;;;;;;2.57;2.30;;;;;;;;;;5021082;28;20231;-77
2022/08/23 00:24:14;;;;;;;2.57;2.10;;;;;;;;;;5055356;28;20166;-77
2022/08/23 00:26:56;;;;;;;3.10;2.27;;;;;;;;;;5037582;28;20203;-77
2022/08/23 00:29:23;;;;;;;3.03;2.30;;;;;;;;;;5037370;28;20663;-77
2022/08/23 00:31:49;;;;;;;4.43;2.43;;;;;;;;;;5055087;28;20174;-77
2022/08/23 00:34:16;;;;;;;3.17;2.57;;;;;;;;;;5021074;28;20178;-77
2022/08/23 00:36:43;;;;;;;2.77;2.13;;;;;;;;;;5037599;28;20178;-77
2022/08/23 00:39:10;;;;;;;3.03;2.40;;;;;;;;;;5037145;28;20197;-77
2022/08/23 00:41:36;;;;;;;3.13;2.30;;;;;;;;;;5037130;28;20632;-77
2022/08/23 00:49:34;;;;;;;3.40;2.33;;;;;;;;;;5040162;28;20177;-77
2022/08/23 00:52:09;;;;;;;8.10;2.70;;;;;;;;;;5054697;28;20184;-77
2022/08/23 00:54:37;;;;;;;3.33;2.27;;;;;;;;;;5036893;28;20204;-77
2022/08/23 00:57:04;;;;;;;3.30;2.20;;;;;;;;;;5020363;28;20209;-77
2022/08/23 00:59:30;;;;;;;3.20;2.50;;;;;;;;;;5021063;28;20209;-77
2022/08/23 01:01:57;;;;;;;2.57;2.20;;;;;;;;;;5020241;28;20174;-77
2022/08/23 01:04:24;;;;;;;3.70;2.37;;;;;;;;;;5036597;28;20205;-77
2022/08/23 01:06:54;;;;;;;3.53;2.47;;;;;;;;;;5054511;28;20181;-77
2022/08/23 01:09:21;;;;;;;5.67;2.40;;;;;;;;;;5036689;28;20301;-77
2022/08/23 01:11:47;;;;;;;3.33;2.43;;;;;;;;;;5036441;28;20178;-77
2022/08/23 01:14:16;;;;;;;3.00;2.47;;;;;;;;;;5036482;28;20252;-77
2022/08/23 01:16:45;;;;;;;2.80;2.50;;;;;;;;;;5036482;28;20260;-77
2022/08/23 01:19:17;;;;;;;2.93;2.43;;;;;;;;;;5036265;28;20651;-77
2022/08/23 01:21:52;;;;;;;3.80;2.37;;;;;;;;;;5036356;28;20261;-77
2022/08/23 01:24:19;;;;;;;3.17;2.47;;;;;;;;;;5036336;28;20541;-77
2022/08/23 01:26:46;;;;;;;2.60;2.30;;;;;;;;;;5019933;28;20212;-77
2022/08/23 01:29:12;;;;;;;2.70;2.30;;;;;;;;;;5036561;28;20189;-77
2022/08/23 01:31:39;;;;;;;4.40;2.40;;;;;;;;;;5036302;28;20231;-77
2022/08/23 01:34:06;;;;;;;3.17;2.50;;;;;;;;;;5054428;28;20174;-77
2022/08/23 01:36:32;;;;;;;2.60;2.40;;;;;;;;;;5035955;28;20207;-77
2022/08/23 01:38:58;;;;;;;2.70;2.27;;;;;;;;;;5036350;28;20201;-77
2022/08/23 01:41:25;;;;;;;3.80;2.53;;;;;;;;;;5036038;28;20170;-77
2022/08/23 01:43:51;;;;;;;3.73;2.70;;;;;;;;;;5035930;28;20176;-77
2022/08/23 01:46:18;;;;;;;3.07;2.53;;;;;;;;;;5036056;28;20178;-77
2022/08/23 01:48:45;;;;;;;3.50;2.60;;;;;;;;;;5053717;28;20562;-77
2022/08/23 01:51:13;;;;;;;2.97;2.60;;;;;;;;;;5035663;28;20178;-77
2022/08/23 01:53:39;;;;;;;2.80;2.60;;;;;;;;;;5035751;28;20174;-77
2022/08/23 01:56:06;;;;;;;2.80;2.30;;;;;;;;;;5019361;28;20727;-77
2022/08/23 01:58:33;;;;;;;3.53;2.50;;;;;;;;;;5036015;28;20190;-77
2022/08/23 02:00:59;;;;;;;2.70;2.50;;;;;;;;;;5053397;28;20174;-77
2022/08/23 02:03:25;;;;;;;2.70;2.50;;;;;;;;;;5053436;28;20288;-77
2022/08/23 02:05:51;;;;;;;4.57;2.80;;;;;;;;;;5019818;28;20197;-77
2022/08/23 02:11:06;;;;;;;4.20;2.73;;;;;;;;;;5038566;28;20177;-77
2022/08/23 02:13:33;;;;;;;4.60;2.57;;;;;;;;;;5035513;28;20166;-77
2022/08/23 02:15:59;;;;;;;2.50;2.30;;;;;;;;;;5034514;28;20784;-77
2022/08/23 02:18:25;;;;;;;3.00;2.50;;;;;;;;;;5018963;28;20206;-77
2022/08/23 02:20:52;;;;;;;2.80;2.60;;;;;;;;;;5018687;28;20173;-77
2022/08/23 02:23:18;;;;;;;3.70;2.50;;;;;;;;;;5035610;28;20170;-77
2022/08/23 02:25:44;;;;;;;6.73;3.00;;;;;;;;;;5035182;28;20188;-77
2022/08/23 02:28:11;;;;;;;4.00;2.43;;;;;;;;;;5035327;28;20193;-77
2022/08/23 02:30:37;;;;;;;2.90;2.60;;;;;;;;;;5034989;28;20243;-77
2022/08/23 02:33:03;;;;;;;3.03;2.60;;;;;;;;;;5018815;28;20178;-77
2022/08/23 02:35:32;;;;;;;3.17;2.60;;;;;;;;;;5019010;28;20212;-77
2022/08/23 02:37:59;;;;;;;3.17;2.37;;;;;;;;;;5035253;28;20201;-77
2022/08/23 02:40:25;;;;;;;3.13;2.53;;;;;;;;;;5052666;28;20170;-77
2022/08/23 02:42:51;;;;;;;2.80;2.60;;;;;;;;;;5018961;28;20177;-77
2022/08/23 02:45:17;;;;;;;5.23;2.50;;;;;;;;;;5052775;28;20174;-77
2022/08/23 02:47:44;;;;;;;2.93;2.60;;;;;;;;;;5018742;28;20197;-77
2022/08/23 02:50:10;;;;;;;3.00;2.63;;;;;;;;;;5052798;28;20198;-77
2022/08/23 02:52:36;;;;;;;3.20;2.40;;;;;;;;;;5034820;28;20631;-77
2022/08/23 02:55:03;;;;;;;4.10;2.50;;;;;;;;;;5018865;28;20304;-77
2022/08/23 02:57:29;;;;;;;2.87;2.60;;;;;;;;;;5035109;28;20198;-77
2022/08/23 02:59:55;;;;;;;2.73;2.50;;;;;;;;;;5034545;28;20173;-77
2022/08/23 03:02:21;;;;;;;3.73;2.40;;;;;;;;;;5035018;28;20170;-77
2022/08/23 03:04:47;;;;;;;2.83;2.50;;;;;;;;;;5034726;28;20200;-77
2022/08/23 03:07:13;;;;;;;2.60;2.40;;;;;;;;;;5018236;28;20217;-77
2022/08/23 03:09:39;;;;;;;2.80;2.60;;;;;;;;;;5018613;28;20279;-77
2022/08/23 03:12:05;;;;;;;2.90;2.60;;;;;;;;;;5034912;28;20660;-77
2022/08/23 03:14:31;;;;;;;3.20;2.90;;;;;;;;;;5034477;28;20264;-77
2022/08/23 03:16:57;;;;;;;3.40;2.60;;;;;;;;;;5018234;28;20174;-77
2022/08/23 03:19:23;;;;;;;3.47;2.50;;;;;;;;;;5034692;28;20186;-77
2022/08/23 03:21:49;;;;;;;3.30;3.00;;;;;;;;;;5018385;28;20174;-77
2022/08/23 03:24:15;;;;;;;3.90;2.90;;;;;;;;;;5034637;28;20173;-77
2022/08/23 03:26:42;;;;;;;4.20;2.60;;;;;;;;;;5034725;28;20671;-77
2022/08/23 03:29:08;;;;;;;3.00;2.70;;;;;;;;;;5038794;28;20299;-77
2022/08/23 03:31:35;;;;;;;3.17;2.77;;;;;;;;;;5038304;28;20636;-77
2022/08/23 03:34:01;;;;;;;2.93;2.60;;;;;;;;;;5022062;28;20185;-77
2022/08/23 03:36:32;;;;;;;3.60;2.77;;;;;;;;;;5038047;28;20197;-77
2022/08/23 03:38:59;;;;;;;2.60;2.40;;;;;;;;;;5038376;28;20193;-77
2022/08/23 03:41:25;;;;;;;3.23;2.60;;;;;;;;;;5038288;28;20170;-77
2022/08/23 03:43:52;;;;;;;3.00;2.57;;;;;;;;;;5038217;28;20181;-77
2022/08/23 03:46:24;;;;;;;3.10;2.80;;;;;;;;;;5038117;28;20178;-77
2022/08/23 03:48:58;;;;;;;2.90;2.57;;;;;;;;;;5056068;28;20198;-77
2022/08/23 03:51:24;;;;;;;5.23;2.70;;;;;;;;;;5038023;28;20177;-77
2022/08/23 03:53:50;;;;;;;3.90;2.90;;;;;;;;;;5021687;28;20701;-77
2022/08/23 03:56:37;;;;;;;3.00;2.70;;;;;;;;;;5038247;28;20797;-77
2022/08/23 03:59:07;;;;;;;3.37;2.70;;;;;;;;;;5038104;28;20247;-77
2022/08/23 04:01:33;;;;;;;3.33;3.03;;;;;;;;;;5021533;28;20179;-77
2022/08/23 04:03:59;;;;;;;4.80;3.20;;;;;;;;;;5038042;28;20181;-77
2022/08/23 04:06:26;;;;;;;3.43;3.03;;;;;;;;;;5021737;28;20206;-77
2022/08/23 04:08:55;;;;;;;3.00;2.70;;;;;;;;;;5055588;28;20223;-77
2022/08/23 04:11:21;;;;;;;3.00;2.70;;;;;;;;;;5055472;28;20182;-77
2022/08/23 04:13:47;;;;;;;2.70;2.50;;;;;;;;;;5021607;28;20182;-77
2022/08/23 04:16:13;;;;;;;2.77;2.57;;;;;;;;;;5037759;28;20610;-77
2022/08/23 04:18:40;;;;;;;3.10;2.80;;;;;;;;;;5037536;28;20238;-77
2022/08/23 04:21:11;;;;;;;4.07;2.83;;;;;;;;;;5037660;28;20239;-77
2022/08/23 04:23:38;;;;;;;3.53;2.87;;;;;;;;;;5021523;28;20261;-77
2022/08/23 04:26:05;;;;;;;3.40;3.10;;;;;;;;;;5037710;28;20190;-77
2022/08/23 04:28:33;;;;;;;3.10;2.90;;;;;;;;;;5037282;28;20292;-77
2022/08/23 04:30:59;;;;;;;3.90;3.20;;;;;;;;;;5037484;28;20188;-77
2022/08/23 04:33:26;;;;;;;4.80;2.90;;;;;;;;;;5020938;28;20220;-77
2022/08/23 04:35:52;;;;;;;2.80;2.60;;;;;;;;;;5037448;28;20232;-77
2022/08/23 04:38:18;;;;;;;4.00;2.80;;;;;;;;;;5020556;28;20244;-77
2022/08/23 04:43:28;;;;;;;4.40;2.90;;;;;;;;;;5055307;28;20161;-77
2022/08/23 04:45:55;;;;;;;4.03;3.03;;;;;;;;;;5037481;28;20224;-77
2022/08/23 04:48:22;;;;;;;3.33;2.97;;;;;;;;;;5036979;28;20197;-77
2022/08/23 04:50:48;;;;;;;2.90;2.70;;;;;;;;;;5037259;28;20235;-77
2022/08/23 04:53:14;;;;;;;3.00;2.80;;;;;;;;;;5037220;28;20181;-77
2022/08/23 04:55:40;;;;;;;4.87;3.20;;;;;;;;;;5020836;28;20208;-77
2022/08/23 04:58:06;;;;;;;3.87;3.07;;;;;;;;;;5036984;28;20569;-77
2022/08/23 05:00:32;;;;;;;3.33;3.03;;;;;;;;;;5020626;28;20284;-77
2022/08/23 05:02:58;;;;;;;3.43;3.13;;;;;;;;;;5036972;28;20253;-77
2022/08/23 05:05:26;;;;;;;3.30;3.00;;;;;;;;;;5037020;28;20201;-77
2022/08/23 05:07:52;;;;;;;4.00;2.80;;;;;;;;;;5076819;22;20200;-75
2022/08/23 05:10:18;;;;;;;3.17;2.47;;;;;;;;;;5054255;28;20227;-75
2022/08/23 05:12:44;;;;;;;2.30;2.10;;;;;;;;;;5020212;28;20524;-75
2022/08/23 05:15:10;;;;;;;2.83;2.40;;;;;;;;;;5036636;28;20205;-75
2022/08/23 05:17:37;;;;;;;3.13;2.57;;;;;;;;;;5036514;28;20174;-75
2022/08/23 05:20:04;;;;;;;2.73;2.50;;;;;;;;;;5036628;28;20165;-76
2022/08/23 05:22:32;;;;;;;3.13;2.50;;;;;;;;;;5036461;28;20170;-75
2022/08/23 05:24:58;;;;;;;3.20;2.70;;;;;;;;;;5054318;28;20261;-75
2022/08/23 05:27:25;;;;;;;3.43;2.23;;;;;;;;;;5036392;28;20220;-75
2022/08/23 05:29:53;;;;;;;2.87;2.50;;;;;;;;;;5036307;28;20198;-76
2022/08/23 05:32:19;;;;;;;3.10;2.70;;;;;;;;;;5019976;28;20679;-75
2022/08/23 05:34:45;;;;;;;4.77;2.57;;;;;;;;;;5020153;28;20251;-74
2022/08/23 05:37:12;;;;;;;4.07;2.73;;;;;;;;;;5020371;28;20184;-74
2022/08/23 05:39:38;;;;;;;4.43;2.67;;;;;;;;;;5035904;28;20227;-76
2022/08/23 05:42:05;;;;;;;3.27;2.77;;;;;;;;;;5035961;28;20174;-76
2022/08/23 05:44:31;;;;;;;5.43;2.87;;;;;;;;;;5053858;28;20174;-74
2022/08/23 05:46:57;;;;;;;2.97;2.60;;;;;;;;;;5036024;28;20184;-74
2022/08/23 05:49:23;;;;;;;3.73;2.40;;;;;;;;;;5019805;28;20284;-74
2022/08/23 05:51:49;;;;;;;2.53;2.20;;;;;;;;;;5019662;28;20174;-74
2022/08/23 05:54:15;;;;;;;2.63;2.43;;;;;;;;;;5019522;28;20181;-75
2022/08/23 05:56:42;;;;;;;3.53;2.47;;;;;;;;;;5036086;28;20205;-74
2022/08/23 05:59:09;;;;;;;2.90;2.60;;;;;;;;;;5019373;28;20239;-73
2022/08/23 06:01:35;;;;;;;3.67;2.67;;;;;;;;;;5035511;28;20758;-75
2022/08/23 06:04:03;;;;;;;4.43;2.80;;;;;;;;;;5019625;28;20174;-75
2022/08/23 06:06:30;;;;;;;2.50;2.30;;;;;;;;;;5035477;28;20666;-75
2022/08/23 06:08:56;;;;;;;3.77;2.87;;;;;;;;;;5035894;28;20217;-75
2022/08/23 06:11:23;;;;;;;3.57;2.80;;;;;;;;;;5019041;28;20192;-75
2022/08/23 06:13:54;;;;;;;3.17;2.87;;;;;;;;;;5035656;28;20185;-75
2022/08/23 06:16:23;;;;;;;2.90;2.70;;;;;;;;;;5035386;28;20193;-75
2022/08/23 06:18:49;;;;;;;3.87;2.40;;;;;;;;;;5035565;28;20200;-75
2022/08/23 06:21:15;;;;;;;3.20;2.70;;;;;;;;;;5035254;28;20174;-75
2022/08/23 06:23:42;;;;;;;4.17;2.70;;;;;;;;;;5035363;28;20177;-75
2022/08/23 06:26:13;;;;;;;3.17;2.47;;;;;;;;;;5019162;28;20706;-75
2022/08/23 06:28:39;;;;;;;3.40;2.90;;;;;;;;;;5035458;28;20233;-76
2022/08/23 06:31:06;;;;;;;2.70;2.50;;;;;;;;;;5035301;28;20188;-74
2022/08/23 06:33:32;;;;;;;4.00;2.70;;;;;;;;;;5034901;28;20191;-75
2022/08/23 06:36:05;;;;;;;3.08;2.47;;;;;;;;;;5018988;28;20619;-75
2022/08/23 06:38:31;;;;;;;3.47;2.33;;;;;;;;;;5018301;28;20212;-75
2022/08/23 06:41:05;;;;;;;4.60;2.47;;;;;;;;;;5017731;28;20178;-75
2022/08/23 06:43:32;;;;;;;3.35;2.58;;;;;;;;;;5033907;28;20189;-76
2022/08/23 06:46:11;;;;;;;3.72;2.53;;;;;;;;;;5039522;28;20211;-75
2022/08/23 06:48:37;;;;;;;3.97;2.72;;;;;;;;;;5052603;28;20193;-76
2022/08/23 06:51:08;;;;;;;3.05;2.75;;;;;;;;;;5018739;28;20272;-76
2022/08/23 06:53:34;;;;;;;2.97;2.50;;;;;;;;;;5034843;28;20181;-75
2022/08/23 06:56:01;;;;;;;3.22;2.53;;;;;;;;;;5018759;28;20205;-75
2022/08/23 06:58:26;;;;;;;3.10;2.80;;;;;;;;;;5034986;28;20190;-75
2022/08/23 07:00:52;;;;;;;4.22;2.78;;;;;;;;;;5018286;28;20550;-75
2022/08/23 07:03:18;;;;;;;3.45;2.65;;;;;;;;;;5018306;28;20177;-75
2022/08/23 07:05:44;;;;;;;2.80;2.33;;;;;;;;;;5018407;28;20177;-75
2022/08/23 07:08:10;;;;;;;4.80;2.70;;;;;;;;;;5018168;28;20213;-75
2022/08/23 07:10:36;;;;;;;3.28;2.63;;;;;;;;;;5035021;28;20173;-75
2022/08/23 07:13:03;;;;;;;2.67;2.25;;;;;;;;;;5052422;28;20180;-75
2022/08/23 07:15:29;;;;;;;3.53;2.53;;;;;;;;;;5052352;28;20659;-75
2022/08/23 07:17:55;;;;;;;4.07;2.38;;;;;;;;;;5018520;28;20225;-75
2022/08/23 07:20:21;;;;;;;4.28;2.35;;;;;;;;;;5018078;28;20212;-75
2022/08/23 07:22:48;;;;;;;3.42;2.25;;;;;;;;;;5018541;28;20632;-75
2022/08/23 07:25:14;;;;;;;2.58;2.38;;;;;;;;;;5018686;28;20178;-75
2022/08/23 07:27:40;;;;;;;5.72;2.70;;;;;;;;;;5018494;28;20273;-76
2022/08/23 07:30:06;;;;;;;3.40;2.55;;;;;;;;;;5052176;28;20169;-74
2022/08/23 07:32:32;;;;;;;5.68;2.38;;;;;;;;;;5034473;28;20554;-75
2022/08/23 07:34:58;;;;;;;5.20;2.50;;;;;;;;;;5034344;28;20672;-76
2022/08/23 07:37:25;;;;;;;2.97;2.40;;;;;;;;;;5034543;28;20170;-75
2022/08/23 07:39:51;;;;;;;3.80;2.20;;;;;;;;;;5034092;28;20618;-76
2022/08/23 07:42:17;;;;;;;2.53;2.00;;;;;;;;;;5018370;28;20257;-75
2022/08/23 07:44:43;;;;;;;2.58;2.28;;;;;;;;;;5018360;28;20721;-75
2022/08/23 07:47:09;;;;;;;2.95;2.53;;;;;;;;;;5017919;28;20185;-75
2022/08/23 07:49:35;;;;;;;4.32;2.25;;;;;;;;;;5018178;28;20221;-75
2022/08/23 07:52:01;;;;;;;3.17;2.30;;;;;;;;;;5017708;28;20183;-75
2022/08/23 07:54:27;;;;;;;3.53;2.25;;;;;;;;;;5017938;28;20595;-76
2022/08/23 07:56:54;;;;;;;3.85;2.08;;;;;;;;;;5034513;28;20185;-75
2022/08/23 07:59:20;;;;;;;5.10;2.60;;;;;;;;;;5017874;28;20246;-75
2022/08/23 08:01:46;;;;;;;3.65;2.30;;;;;;;;;;5017690;28;20220;-75
2022/08/23 08:04:12;;;;;;;5.50;2.60;;;;;;;;;;5017829;28;20209;-75
2022/08/23 08:06:42;;;;;;;3.00;2.08;;;;;;;;;;5034258;28;20166;-75
2022/08/23 08:09:09;;;;;;;2.75;1.90;;;;;;;;;;5034124;28;20205;-75
2022/08/23 08:11:36;;;;;;;3.65;2.22;;;;;;;;;;5033921;28;20181;-75
2022/08/23 08:14:06;;;;;;;3.92;1.98;;;;;;;;;;5034674;28;20169;-74
2022/08/23 08:16:35;;;;;;;3.40;2.00;;;;;;;;;;5021229;28;20297;-75
2022/08/23 08:19:01;;;;;;;2.92;2.20;;;;;;;;;;5021212;28;20194;-75
2022/08/23 08:21:28;;;;;;;4.50;2.20;;;;;;;;;;5021399;28;20189;-75
2022/08/23 08:23:56;;;;;;;3.35;2.00;;;;;;;;;;5037793;28;20170;-75
2022/08/23 08:26:21;;;;;;;2.88;2.08;;;;;;;;;;5037641;28;20184;-75
2022/08/23 08:28:48;;;;;;;2.30;2.10;;;;;;;;;;5037263;28;20194;-75
2022/08/23 08:31:14;;;;;;;5.68;2.20;;;;;;;;;;5020773;28;20554;-75
2022/08/23 08:33:40;;;;;;;2.90;2.20;;;;;;;;;;5037628;28;20609;-77
2022/08/23 08:36:07;;;;;;;2.50;1.80;;;;;;;;;;5037732;28;20237;-75
2022/08/23 08:38:34;;;;;;;2.95;2.13;;;;;;;;;;5021149;28;20223;-75
2022/08/23 08:41:06;;;;;;;2.60;1.90;;;;;;;;;;5037131;28;20200;-75
2022/08/23 08:43:44;;;;;;;4.05;2.10;;;;;;;;;;5037199;28;20196;-75
2022/08/23 08:46:18;;;;;;;3.25;2.10;;;;;;;;;;5037427;28;20185;-75
2022/08/23 08:48:50;;;;;;;3.15;2.22;;;;;;;;;;5037578;28;20259;-77
2022/08/23 08:51:28;;;;;;;2.50;1.83;;;;;;;;;;5054814;28;20181;-76
2022/08/23 08:53:56;;;;;;;3.50;1.88;;;;;;;;;;5037152;28;20166;-75
2022/08/23 08:56:31;;;;;;;2.47;1.90;;;;;;;;;;5020696;28;20247;-75
2022/08/23 08:58:59;;;;;;;2.97;2.00;;;;;;;;;;5036969;28;20239;-74
2022/08/23 09:01:26;;;;;;;2.58;1.80;;;;;;;;;;5037097;28;20174;-75
2022/08/23 09:03:53;;;;;;;2.97;2.00;;;;;;;;;;5036989;28;20169;-74
2022/08/23 09:06:27;;;;;;;2.67;1.88;;;;;;;;;;5036972;28;20185;-74
2022/08/23 09:09:16;;;;;;;4.10;2.10;;;;;;;;;;5036323;28;20206;-75
2022/08/23 09:11:51;;;;;;;2.00;1.80;;;;;;;;;;5030579;28;20178;-75
2022/08/23 09:14:37;;;;;;;5.47;2.00;;;;;;;;;;5054024;28;20169;-75
2022/08/23 09:17:04;;;;;;;2.33;1.90;;;;;;;;;;5036174;28;20618;-75
2022/08/23 09:19:33;;;;;;;2.65;1.80;;;;;;;;;;5035962;28;20201;-75
2022/08/23 09:22:00;;;;;;;4.55;1.90;;;;;;;;;;5035729;28;20713;-75
2022/08/23 09:24:27;;;;;;;3.08;1.90;;;;;;;;;;5036126;28;20666;-76
2022/08/23 09:26:53;;;;;;;3.72;1.83;;;;;;;;;;5035594;28;20174;-75
2022/08/23 09:29:24;;;;;;;3.90;1.85;;;;;;;;;;5035948;28;20205;-75
2022/08/23 09:31:52;;;;;;;2.97;1.80;;;;;;;;;;5035801;28;20228;-75
2022/08/23 09:34:19;;;;;;;2.22;1.83;;;;;;;;;;5019571;28;20174;-75
2022/08/23 09:36:45;;;;;;;3.15;1.98;;;;;;;;;;5018971;28;20232;-76
2022/08/23 09:39:26;;;;;;;2.78;1.80;;;;;;;;;;5035569;28;20194;-76
2022/08/23 09:41:52;;;;;;;3.70;1.88;;;;;;;;;;5035685;28;20170;-75
2022/08/23 09:44:39;;;;;;;2.15;1.60;;;;;;;;;;5019219;28;20177;-75
2022/08/23 09:47:13;;;;;;;3.13;1.85;;;;;;;;;;5035783;28;20223;-75
2022/08/23 09:49:41;;;;;;;4.00;1.90;;;;;;;;;;5018927;28;20199;-78
2022/08/23 09:52:26;;;;;;;4.45;2.05;;;;;;;;;;5035504;28;20262;-76
2022/08/23 09:55:01;;;;;;;2.13;1.85;;;;;;;;;;5035557;28;20170;-75
2022/08/23 09:57:29;;;;;;;2.25;1.58;;;;;;;;;;5019164;28;20174;-77
2022/08/23 09:59:56;;;;;;;2.17;1.92;;;;;;;;;;5035328;28;20277;-75
2022/08/23 10:02:28;;;;;;;2.53;1.80;;;;;;;;;;5035470;28;20181;-79
2022/08/23 10:04:54;;;;;;;1.98;1.67;;;;;;;;;;5035362;28;20178;-77
2022/08/23 10:07:20;;;;;;;2.15;1.70;;;;;;;;;;5035261;28;20174;-75
2022/08/23 10:09:46;;;;;;;3.95;1.85;;;;;;;;;;5052601;28;20209;-75
2022/08/23 10:12:12;;;;;;;3.28;1.80;;;;;;;;;;5018627;28;20196;-76
2022/08/23 10:14:38;;;;;;;4.22;2.03;;;;;;;;;;5052756;28;20169;-75
2022/08/23 10:17:32;;;;;;;2.80;1.75;;;;;;;;;;5018510;28;20177;-75
2022/08/23 10:20:20;;;;;;;2.70;1.70;;;;;;;;;;5034897;28;20257;-75
2022/08/23 10:22:58;;;;;;;2.45;1.80;;;;;;;;;;5034934;28;20170;-76
2022/08/23 10:25:24;;;;;;;3.97;1.70;;;;;;;;;;5034845;28;20182;-77
2022/08/23 10:30:40;;;;;;;3.13;2.03;;;;;;;;;;5052472;28;20292;-76
2022/08/23 10:33:16;;;;;;;3.72;1.92;;;;;;;;;;5034797;28;20189;-77
2022/08/23 10:36:21;;;;;;;2.67;1.73;;;;;;;;;;5052497;28;20193;-76
2022/08/23 10:38:57;;;;;;;2.25;1.70;;;;;;;;;;4990593;28;20195;-78
2022/08/23 10:41:42;;;;;;;3.53;1.90;;;;;;;;;;4974534;28;20194;-77
2022/08/23 10:44:24;;;;;;;1.75;1.63;;;;;;;;;;5014646;28;20189;-75
2022/08/23 10:46:57;;;;;;;2.70;2.20;;;;;;;;;;5034390;28;20284;-77
2022/08/23 10:49:25;;;;;;;4.40;1.90;;;;;;;;;;5034436;28;20197;-78
2022/08/23 10:51:52;;;;;;;3.65;1.85;;;;;;;;;;5017928;28;20185;-77
2022/08/23 10:54:33;;;;;;;2.90;1.95;;;;;;;;;;5034728;28;20264;-77
2022/08/23 10:57:01;;;;;;;3.53;1.90;;;;;;;;;;5034480;28;20227;-76
2022/08/23 10:59:28;;;;;;;2.63;1.70;;;;;;;;;;5034425;28;20204;-76
2022/08/23 11:02:10;;;;;;;3.58;1.90;;;;;;;;;;5034146;28;20173;-75
2022/08/23 11:04:39;;;;;;;2.75;2.00;;;;;;;;;;5034540;28;20170;-75
2022/08/23 11:07:15;;;;;;;2.15;1.80;;;;;;;;;;5052048;28;20169;-75
2022/08/23 11:10:17;;;;;;;2.78;1.70;;;;;;;;;;5056016;23;20391;-80
2022/08/23 11:13:09;;;;;;;3.20;1.92;;;;;;;;;;4995004;28;20175;-81
2022/08/23 11:15:40;;;;;;;4.15;1.90;;;;;;;;;;5032241;28;20314;-80
2022/08/23 11:18:07;;;;;;;2.75;1.90;;;;;;;;;;5054454;28;20251;-79
2022/08/23 11:20:49;;;;;;;2.72;2.00;;;;;;;;;;5070767;28;20629;-79
2022/08/23 11:23:16;;;;;;;2.33;1.90;;;;;;;;;;5070653;28;20544;-78
2022/08/23 11:25:43;;;;;;;2.90;1.70;;;;;;;;;;5070808;28;20185;-78
2022/08/23 11:28:21;;;;;;;2.47;1.80;;;;;;;;;;5070651;28;20277;-80
2022/08/23 11:30:48;;;;;;;3.17;1.90;;;;;;;;;;5070553;28;20255;-79
2022/08/23 11:33:14;;;;;;;3.00;1.73;;;;;;;;;;5070466;28;20180;-78
2022/08/23 11:35:43;;;;;;;3.50;1.95;;;;;;;;;;5071012;28;20204;-80
2022/08/23 11:38:09;;;;;;;4.68;2.05;;;;;;;;;;5071651;28;20266;-80
2022/08/23 11:40:41;;;;;;;3.50;1.70;;;;;;;;;;5054943;28;20197;-80
2022/08/23 11:43:11;;;;;;;2.33;1.73;;;;;;;;;;5072536;28;20196;-80
2022/08/23 11:45:37;;;;;;;1.85;1.60;;;;;;;;;;5072200;28;20172;-82
2022/08/23 11:48:18;;;;;;;2.00;1.80;;;;;;;;;;5071552;28;20185;-78
2022/08/23 11:50:50;;;;;;;3.42;2.00;;;;;;;;;;5074055;28;20213;-78
2022/08/23 11:53:40;;;;;;;3.08;1.60;;;;;;;;;;5074387;28;20180;-78
2022/08/23 11:56:25;;;;;;;2.38;1.70;;;;;;;;;;5074152;28;20208;-78
2022/08/23 11:59:12;;;;;;;2.50;1.92;;;;;;;;;;5074362;28;20193;-77
2022/08/23 12:01:40;;;;;;;2.10;1.70;;;;;;;;;;5075573;28;20169;-78
2022/08/23 12:04:13;;;;;;;3.05;2.00;;;;;;;;;;5074209;28;20659;-78
2022/08/23 12:06:39;;;;;;;2.58;1.50;;;;;;;;;;5058004;28;20269;-78
2022/08/23 12:09:25;;;;;;;3.33;1.77;;;;;;;;;;5073978;28;20347;-79
2022/08/23 12:11:54;;;;;;;2.40;1.73;;;;;;;;;;5073729;28;20177;-78
2022/08/23 12:14:40;;;;;;;4.55;1.88;;;;;;;;;;5074097;28;20588;-79
2022/08/23 12:17:12;;;;;;;3.00;1.70;;;;;;;;;;5074272;28;20671;-78
2022/08/23 12:19:56;;;;;;;2.47;1.75;;;;;;;;;;5073785;28;20250;-78
2022/08/23 12:22:26;;;;;;;3.42;1.77;;;;;;;;;;5073920;28;20176;-79
2022/08/23 12:24:53;;;;;;;2.25;1.80;;;;;;;;;;5073938;28;20647;-78
2022/08/23 12:27:35;;;;;;;2.97;1.70;;;;;;;;;;5073070;28;20686;-78
2022/08/23 12:30:07;;;;;;;2.38;1.80;;;;;;;;;;5073560;28;20197;-78
2022/08/23 12:32:55;;;;;;;2.20;1.83;;;;;;;;;;5073627;28;20521;-78
2022/08/23 12:35:33;;;;;;;3.65;1.80;;;;;;;;;;5073520;28;20196;-79
2022/08/23 12:38:06;;;;;;;3.28;1.70;;;;;;;;;;5073428;28;20196;-79
2022/08/23 12:40:34;;;;;;;2.55;1.88;;;;;;;;;;5073250;28;20674;-78
2022/08/23 12:43:05;;;;;;;3.22;1.58;;;;;;;;;;5057041;28;20173;-78
2022/08/23 12:45:36;;;;;;;2.53;1.60;;;;;;;;;;5073172;28;20191;-79
2022/08/23 12:48:02;;;;;;;4.35;1.80;;;;;;;;;;5074563;28;20169;-78
2022/08/23 12:50:31;;;;;;;4.95;1.98;;;;;;;;;;5056483;28;20169;-78
2022/08/23 12:52:59;;;;;;;2.53;1.67;;;;;;;;;;5073420;28;20722;-79
2022/08/23 12:55:29;;;;;;;3.80;1.80;;;;;;;;;;5073363;28;20667;-78
2022/08/23 12:57:56;;;;;;;3.70;1.90;;;;;;;;;;5072963;28;20180;-78
2022/08/23 13:00:22;;;;;;;1.90;1.60;;;;;;;;;;5055882;28;20180;-78
2022/08/23 13:02:53;;;;;;;1.67;1.58;;;;;;;;;;5073096;28;20173;-78
2022/08/23 13:05:24;;;;;;;2.80;1.83;;;;;;;;;;5073337;28;20185;-79
2022/08/23 13:07:50;;;;;;;3.53;1.73;;;;;;;;;;5074183;28;20176;-82
2022/08/23 13:10:16;;;;;;;3.33;1.70;;;;;;;;;;5057610;28;20250;-80
2022/08/23 13:12:42;;;;;;;2.03;1.83;;;;;;;;;;5073621;28;20177;-77
2022/08/23 13:15:09;;;;;;;2.85;1.77;;;;;;;;;;5057872;28;20205;-78
2022/08/23 13:17:38;;;;;;;2.40;1.50;;;;;;;;;;5074062;28;20177;-78
2022/08/23 13:20:07;;;;;;;2.53;1.85;;;;;;;;;;5073261;28;20181;-78
2022/08/23 13:22:34;;;;;;;3.28;1.90;;;;;;;;;;5073952;28;20169;-79
2022/08/23 13:25:06;;;;;;;2.88;1.73;;;;;;;;;;5074563;28;20223;-80
2022/08/23 13:27:44;;;;;;;2.72;1.60;;;;;;;;;;5056888;28;20169;-78
2022/08/23 13:30:10;;;;;;;3.17;1.90;;;;;;;;;;5073253;28;20196;-79
2022/08/23 13:32:39;;;;;;;4.40;1.85;;;;;;;;;;5073614;28;20169;-78
2022/08/23 13:35:24;;;;;;;2.95;1.90;;;;;;;;;;5074286;28;20201;-78
2022/08/23 13:37:50;;;;;;;2.90;1.67;;;;;;;;;;5073623;28;20203;-78
2022/08/23 13:40:40;;;;;;;2.20;1.83;;;;;;;;;;5057740;28;20181;-78
2022/08/23 13:43:08;;;;;;;2.40;1.73;;;;;;;;;;5064418;28;20185;-78
2022/08/23 13:45:36;;;;;;;2.67;1.70;;;;;;;;;;5056786;28;20173;-78
2022/08/23 13:48:05;;;;;;;2.92;1.77;;;;;;;;;;5073321;28;20177;-78
2022/08/23 13:50:33;;;;;;;2.35;1.73;;;;;;;;;;5072938;28;20181;-78
2022/08/23 13:53:00;;;;;;;3.05;1.73;;;;;;;;;;5073139;28;20184;-78
2022/08/23 13:55:27;;;;;;;2.08;1.80;;;;;;;;;;5073169;28;20205;-78
2022/08/23 13:57:53;;;;;;;2.75;1.80;;;;;;;;;;5073171;28;20177;-78
2022/08/23 14:00:20;;;;;;;2.63;1.90;;;;;;;;;;5073021;28;20169;-78
2022/08/23 14:02:47;;;;;;;2.90;2.28;;;;;;;;;;5056634;28;20200;-78
2022/08/23 14:05:14;;;;;;;2.80;2.00;;;;;;;;;;5056613;28;20260;-78
2022/08/23 14:07:40;;;;;;;3.40;1.85;;;;;;;;;;5074439;28;20184;-78
2022/08/23 14:10:06;;;;;;;2.22;1.88;;;;;;;;;;5055920;28;20216;-78
2022/08/23 14:12:33;;;;;;;2.78;1.77;;;;;;;;;;5071779;28;20254;-78
2022/08/23 14:15:01;;;;;;;2.88;1.80;;;;;;;;;;5056216;28;20189;-78
2022/08/23 14:17:27;;;;;;;3.08;1.85;;;;;;;;;;5073061;28;20180;-78
2022/08/23 14:19:53;;;;;;;2.88;1.73;;;;;;;;;;5072373;28;20188;-78
2022/08/23 14:22:19;;;;;;;2.00;1.80;;;;;;;;;;5072588;28;20173;-78
2022/08/23 14:24:45;;;;;;;4.18;1.90;;;;;;;;;;5056086;28;20199;-78
2022/08/23 14:27:11;;;;;;;4.07;1.73;;;;;;;;;;5055628;28;20208;-78
2022/08/23 14:29:38;;;;;;;5.05;1.80;;;;;;;;;;5072501;28;20235;-78
2022/08/23 14:32:04;;;;;;;3.35;1.60;;;;;;;;;;5072624;28;20230;-78
2022/08/23 14:34:30;;;;;;;5.75;2.00;;;;;;;;;;5072620;28;20260;-78
2022/08/23 14:36:57;;;;;;;2.53;1.60;;;;;;;;;;5056605;28;20262;-78
2022/08/23 14:39:23;;;;;;;3.38;1.80;;;;;;;;;;5072635;28;20235;-79
2022/08/23 14:41:49;;;;;;;2.20;1.80;;;;;;;;;;5073185;28;20173;-79
2022/08/23 14:44:16;;;;;;;1.70;1.45;;;;;;;;;;5073110;28;20179;-79
2022/08/23 14:46:42;;;;;;;2.45;1.85;;;;;;;;;;5073959;28;20200;-79
2022/08/23 14:49:08;;;;;;;4.18;2.17;;;;;;;;;;5057102;28;20231;-79
2022/08/23 14:51:36;;;;;;;2.85;1.85;;;;;;;;;;5057139;28;20658;-79
2022/08/23 14:54:03;;;;;;;2.63;1.60;;;;;;;;;;5073986;28;20208;-79
2022/08/23 14:56:30;;;;;;;2.22;1.75;;;;;;;;;;5073708;28;20234;-79
2022/08/23 14:58:56;;;;;;;2.95;1.90;;;;;;;;;;5056711;28;20197;-79
2022/08/23 15:01:22;;;;;;;3.42;1.90;;;;;;;;;;5073267;28;20269;-79
2022/08/23 15:03:48;;;;;;;2.53;1.90;;;;;;;;;;5073552;28;20219;-79
2022/08/23 15:06:15;;;;;;;2.08;1.80;;;;;;;;;;5056939;28;20201;-79
2022/08/23 15:08:42;;;;;;;3.20;1.60;;;;;;;;;;5072688;28;20201;-79